createdAt,value
2024-04-18T00:00:49.451Z,0.00
2024-04-18T00:01:49.363Z,0.00
2024-04-18T00:02:49.351Z,0.00
2024-04-18T00:03:49.560Z,0.00
2024-04-18T00:04:49.388Z,0.00
2024-04-18T00:05:49.289Z,0.00
2024-04-18T00:06:49.324Z,0.00
2024-04-18T00:07:49.254Z,0.00
2024-04-18T00:08:49.237Z,0.00
2024-04-18T00:09:49.251Z,0.00
2024-04-18T00:10:49.205Z,0.00
2024-04-18T00:11:49.176Z,0.00
2024-04-18T00:12:49.189Z,0.00
2024-04-18T00:13:49.139Z,0.00
2024-04-18T00:14:49.133Z,0.00
2024-04-18T00:15:49.177Z,0.00
2024-04-18T00:16:49.082Z,0.00
2024-04-18T00:17:49.140Z,0.00
2024-04-18T00:18:49.072Z,0.00
2024-04-18T00:19:49.035Z,0.00
2024-04-18T00:20:49.009Z,0.00
2024-04-18T00:21:49.042Z,0.00
2024-04-18T00:22:48.974Z,0.00
2024-04-18T00:23:48.952Z,0.00
2024-04-18T00:24:48.974Z,0.00
2024-04-18T00:25:48.918Z,0.00
2024-04-18T00:26:48.905Z,0.00
2024-04-18T00:27:48.951Z,0.00
2024-04-18T00:28:48.863Z,0.00
2024-04-18T00:29:48.850Z,0.00
2024-04-18T00:30:48.929Z,0.00
2024-04-18T00:31:48.846Z,0.00
2024-04-18T00:32:48.828Z,0.00
2024-04-18T00:33:48.810Z,0.00
2024-04-18T00:34:48.766Z,0.00
2024-04-18T00:35:48.732Z,0.00
2024-04-18T00:36:48.730Z,0.00
2024-04-18T00:37:48.690Z,0.00
2024-04-18T00:38:48.678Z,0.00
2024-04-18T00:39:48.772Z,0.00
2024-04-18T00:40:48.638Z,0.00
2024-04-18T00:41:48.624Z,0.00
2024-04-18T00:42:48.623Z,0.00
2024-04-18T00:43:48.587Z,0.00
2024-04-18T00:44:48.580Z,0.00
2024-04-18T00:45:48.638Z,0.00
2024-04-18T00:46:48.531Z,0.00
2024-04-18T00:47:49.007Z,0.00
2024-04-18T00:48:48.719Z,0.00
2024-04-18T00:49:48.476Z,0.00
2024-04-18T00:50:48.457Z,0.00
2024-04-18T00:51:48.503Z,0.00
2024-04-18T00:52:48.420Z,0.00
2024-04-18T00:53:48.400Z,0.00
2024-04-18T00:54:48.431Z,0.00
2024-04-18T00:55:48.364Z,0.00
2024-04-18T00:56:48.365Z,0.00
2024-04-18T00:57:48.352Z,0.00
2024-04-18T00:58:48.311Z,0.00
2024-04-18T00:59:48.319Z,0.00
2024-04-18T01:00:48.423Z,0.00
2024-04-18T01:01:48.255Z,0.00
2024-04-18T01:02:48.235Z,0.00
2024-04-18T01:03:48.397Z,0.00
2024-04-18T01:04:48.225Z,0.00
2024-04-18T01:05:48.193Z,0.00
2024-04-18T01:06:48.229Z,0.00
2024-04-18T01:07:48.142Z,0.00
2024-04-18T01:08:48.126Z,0.00
2024-04-18T01:09:48.157Z,0.00
2024-04-18T01:10:48.093Z,0.00
2024-04-18T01:11:48.092Z,0.00
2024-04-18T01:12:48.104Z,0.00
2024-04-18T01:13:48.033Z,0.00
2024-04-18T01:14:48.015Z,0.00
2024-04-18T01:15:48.063Z,0.00
2024-04-18T01:16:47.993Z,0.00
2024-04-18T01:17:48.011Z,0.00
2024-04-18T01:18:47.975Z,0.00
2024-04-18T01:19:47.942Z,0.00
2024-04-18T01:20:47.905Z,0.00
2024-04-18T01:21:47.983Z,0.00
2024-04-18T01:22:47.869Z,0.00
2024-04-18T01:23:47.854Z,0.00
2024-04-18T01:24:47.901Z,0.00
2024-04-18T01:25:47.814Z,0.00
2024-04-18T01:26:47.799Z,0.00
2024-04-18T01:27:47.897Z,0.00
2024-04-18T01:28:47.776Z,0.00
2024-04-18T01:29:47.771Z,0.00
2024-04-18T01:30:47.848Z,0.00
2024-04-18T01:31:47.701Z,0.00
2024-04-18T01:32:47.760Z,0.00
2024-04-18T01:33:47.799Z,0.00
2024-04-18T01:34:47.664Z,0.00
2024-04-18T01:35:47.633Z,0.00
2024-04-18T01:36:47.660Z,0.00
2024-04-18T01:37:47.589Z,0.00
2024-04-18T01:38:47.651Z,0.00
2024-04-18T01:39:47.602Z,0.00
2024-04-18T01:40:47.540Z,0.00
2024-04-18T01:41:47.519Z,0.00
2024-04-18T01:42:47.550Z,0.00
2024-04-18T01:43:47.720Z,0.00
2024-04-18T01:44:47.465Z,0.00
2024-04-18T01:45:47.521Z,0.00
2024-04-18T01:46:47.427Z,0.00
2024-04-18T01:47:47.465Z,0.00
2024-04-18T01:48:47.525Z,0.00
2024-04-18T01:49:47.376Z,0.00
2024-04-18T01:50:47.349Z,0.00
2024-04-18T01:51:47.401Z,0.00
2024-04-18T01:52:47.314Z,0.00
2024-04-18T01:53:47.291Z,0.00
2024-04-18T01:54:47.332Z,0.00
2024-04-18T01:55:47.256Z,0.00
2024-04-18T01:56:47.239Z,0.00
2024-04-18T01:57:47.307Z,0.00
2024-04-18T01:58:47.218Z,0.00
2024-04-18T01:59:47.189Z,0.00
2024-04-18T02:00:47.357Z,0.00
2024-04-18T02:01:47.141Z,0.00
2024-04-18T02:02:47.147Z,0.00
2024-04-18T02:03:47.219Z,0.00
2024-04-18T02:04:47.153Z,0.00
2024-04-18T02:05:47.062Z,0.00
2024-04-18T02:06:47.107Z,0.00
2024-04-18T02:07:47.042Z,0.00
2024-04-18T02:08:47.014Z,0.00
2024-04-18T02:09:47.058Z,0.00
2024-04-18T02:10:47.003Z,0.00
2024-04-18T02:11:46.964Z,0.00
2024-04-18T02:12:46.961Z,0.00
2024-04-18T02:13:46.924Z,0.00
2024-04-18T02:14:46.901Z,0.00
2024-04-18T02:15:46.949Z,0.00
2024-04-18T02:16:46.860Z,0.00
2024-04-18T02:17:46.868Z,0.00
2024-04-18T02:18:46.860Z,0.00
2024-04-18T02:19:46.797Z,0.00
2024-04-18T02:20:46.785Z,0.00
2024-04-18T02:21:46.831Z,0.00
2024-04-18T02:22:46.746Z,0.00
2024-04-18T02:23:46.724Z,0.00
2024-04-18T02:24:46.787Z,0.00
2024-04-18T02:25:46.681Z,0.00
2024-04-18T02:26:46.673Z,0.00
2024-04-18T02:27:46.710Z,0.00
2024-04-18T02:28:46.859Z,0.00
2024-04-18T02:29:46.606Z,0.00
2024-04-18T02:30:46.655Z,0.00
2024-04-18T02:31:46.575Z,0.00
2024-04-18T02:32:46.564Z,0.00
2024-04-18T02:33:46.634Z,0.00
2024-04-18T02:34:46.562Z,0.00
2024-04-18T02:35:46.493Z,0.00
2024-04-18T02:36:46.587Z,0.00
2024-04-18T02:37:46.480Z,0.00
2024-04-18T02:38:46.472Z,0.00
2024-04-18T02:39:46.432Z,0.00
2024-04-18T02:40:46.391Z,0.00
2024-04-18T02:41:46.380Z,0.00
2024-04-18T02:42:46.366Z,0.00
2024-04-18T02:43:46.334Z,0.00
2024-04-18T02:44:46.313Z,0.00
2024-04-18T02:45:46.365Z,0.00
2024-04-18T02:46:46.274Z,0.00
2024-04-18T02:47:46.316Z,0.00
2024-04-18T02:48:46.276Z,0.00
2024-04-18T02:49:46.219Z,0.00
2024-04-18T02:50:46.197Z,0.00
2024-04-18T02:51:46.236Z,0.00
2024-04-18T02:52:46.162Z,0.00
2024-04-18T02:53:46.144Z,0.00
2024-04-18T02:54:46.223Z,0.00
2024-04-18T02:55:46.121Z,0.00
2024-04-18T02:56:46.090Z,0.00
2024-04-18T02:57:46.118Z,0.00
2024-04-18T02:58:46.044Z,0.00
2024-04-18T02:59:46.025Z,0.00
2024-04-18T03:00:46.088Z,0.00
2024-04-18T03:01:45.990Z,0.00
2024-04-18T03:02:46.057Z,0.00
2024-04-18T03:03:46.022Z,0.00
2024-04-18T03:04:45.929Z,0.00
2024-04-18T03:05:45.917Z,0.00
2024-04-18T03:06:45.940Z,0.00
2024-04-18T03:07:45.872Z,0.00
2024-04-18T03:08:45.856Z,0.00
2024-04-18T03:09:45.861Z,0.00
2024-04-18T03:10:45.814Z,0.00
2024-04-18T03:11:45.886Z,0.00
2024-04-18T03:12:45.852Z,0.00
2024-04-18T03:13:45.780Z,0.00
2024-04-18T03:14:45.745Z,0.00
2024-04-18T03:15:45.811Z,0.00
2024-04-18T03:16:45.706Z,0.00
2024-04-18T03:17:48.553Z,0.00
2024-04-18T03:18:45.800Z,0.00
2024-04-18T03:19:45.650Z,0.00
2024-04-18T03:20:45.622Z,0.00
2024-04-18T03:21:45.680Z,0.00
2024-04-18T03:22:45.585Z,0.00
2024-04-18T03:23:45.569Z,0.00
2024-04-18T03:24:45.577Z,0.00
2024-04-18T03:25:45.638Z,0.00
2024-04-18T03:26:45.517Z,0.00
2024-04-18T03:27:45.576Z,0.00
2024-04-18T03:28:45.472Z,0.00
2024-04-18T03:29:45.450Z,0.00
2024-04-18T03:30:45.539Z,0.00
2024-04-18T03:31:45.418Z,0.00
2024-04-18T03:32:45.435Z,0.00
2024-04-18T03:33:45.427Z,0.00
2024-04-18T03:34:45.354Z,0.00
2024-04-18T03:35:45.340Z,0.00
2024-04-18T03:36:45.356Z,0.00
2024-04-18T03:37:45.302Z,0.00
2024-04-18T03:38:45.290Z,0.00
2024-04-18T03:39:45.311Z,0.00
2024-04-18T03:40:45.248Z,0.00
2024-04-18T03:41:45.230Z,0.00
2024-04-18T03:42:45.259Z,0.00
2024-04-18T03:43:45.189Z,0.00
2024-04-18T03:44:45.172Z,0.00
2024-04-18T03:45:45.182Z,0.00
2024-04-18T03:46:45.134Z,0.00
2024-04-18T03:47:45.277Z,0.00
2024-04-18T03:48:45.136Z,0.00
2024-04-18T03:49:45.082Z,0.00
2024-04-18T03:50:45.055Z,0.00
2024-04-18T03:51:45.129Z,0.00
2024-04-18T03:52:45.040Z,0.00
2024-04-18T03:53:45.002Z,0.00
2024-04-18T03:54:56.101Z,0.00
2024-04-18T03:55:44.967Z,0.00
2024-04-18T03:56:44.950Z,0.00
2024-04-18T03:57:45.052Z,0.00
2024-04-18T03:58:44.915Z,0.00
2024-04-18T03:59:44.896Z,0.00
2024-04-18T04:00:45.000Z,0.00
2024-04-18T04:01:44.906Z,0.00
2024-04-18T04:02:44.899Z,0.00
2024-04-18T04:03:44.938Z,0.00
2024-04-18T04:04:44.810Z,0.00
2024-04-18T04:05:44.804Z,0.00
2024-04-18T04:06:44.881Z,0.00
2024-04-18T04:07:44.773Z,0.00
2024-04-18T04:08:44.771Z,0.00
2024-04-18T04:09:44.970Z,0.00
2024-04-18T04:10:44.885Z,0.00
2024-04-18T04:11:44.703Z,0.00
2024-04-18T04:12:44.750Z,0.00
2024-04-18T04:13:44.650Z,0.00
2024-04-18T04:14:44.618Z,0.00
2024-04-18T04:15:44.680Z,0.00
2024-04-18T04:16:44.579Z,0.00
2024-04-18T04:17:44.655Z,0.00
2024-04-18T04:18:44.679Z,0.00
2024-04-18T04:19:44.531Z,0.00
2024-04-18T04:20:44.533Z,0.00
2024-04-18T04:21:44.513Z,0.00
2024-04-18T04:22:44.472Z,0.00
2024-04-18T04:23:44.465Z,0.00
2024-04-18T04:24:44.459Z,0.00
2024-04-18T04:25:44.422Z,0.00
2024-04-18T04:26:44.392Z,0.00
2024-04-18T04:27:44.426Z,0.00
2024-04-18T04:28:44.363Z,0.00
2024-04-18T04:29:44.359Z,0.00
2024-04-18T04:30:44.347Z,0.00
2024-04-18T04:31:44.381Z,0.00
2024-04-18T04:32:44.340Z,0.00
2024-04-18T04:33:44.315Z,0.00
2024-04-18T04:34:44.255Z,0.00
2024-04-18T04:35:44.235Z,0.00
2024-04-18T04:36:44.238Z,0.00
2024-04-18T04:37:44.205Z,0.00
2024-04-18T04:38:44.175Z,0.00
2024-04-18T04:39:44.191Z,0.00
2024-04-18T04:40:44.144Z,0.00
2024-04-18T04:41:44.125Z,0.00
2024-04-18T04:42:44.140Z,0.00
2024-04-18T04:43:44.088Z,0.00
2024-04-18T04:44:44.069Z,0.00
2024-04-18T04:45:44.128Z,0.00
2024-04-18T04:46:44.033Z,0.00
2024-04-18T04:47:44.069Z,0.00
2024-04-18T04:48:44.104Z,0.00
2024-04-18T04:49:43.983Z,0.00
2024-04-18T04:50:43.964Z,0.00
2024-04-18T04:51:44.039Z,0.00
2024-04-18T04:52:43.924Z,5.63
2024-04-18T04:53:43.915Z,5.63
2024-04-18T04:54:44.309Z,5.63
2024-04-18T04:55:43.934Z,5.63
2024-04-18T04:56:43.865Z,5.63
2024-04-18T04:57:43.855Z,5.63
2024-04-18T04:58:43.830Z,5.63
2024-04-18T04:59:43.795Z,5.63
2024-04-18T05:00:43.846Z,5.63
2024-04-18T05:01:43.771Z,5.63
2024-04-18T05:02:45.182Z,5.63
2024-04-18T05:03:43.792Z,5.63
2024-04-18T05:04:43.707Z,5.63
2024-04-18T05:05:43.693Z,5.63
2024-04-18T05:06:43.739Z,5.63
2024-04-18T05:07:43.661Z,5.63
2024-04-18T05:08:43.637Z,5.63
2024-04-18T05:09:43.691Z,5.63
2024-04-18T05:10:43.624Z,5.63
2024-04-18T05:11:43.584Z,5.63
2024-04-18T05:12:43.692Z,5.63
2024-04-18T05:13:43.561Z,5.63
2024-04-18T05:14:43.535Z,5.63
2024-04-18T05:17:38.896Z,11.25
2024-04-18T05:18:38.798Z,11.25
2024-04-18T05:19:38.767Z,11.25
2024-04-18T05:25:23.663Z,11.25
2024-04-18T05:26:23.587Z,11.25
2024-04-18T05:27:23.587Z,11.25
2024-04-18T05:28:23.571Z,11.25
2024-04-18T05:29:23.535Z,11.25
2024-04-18T05:30:23.517Z,11.25
2024-04-18T05:31:23.490Z,11.25
2024-04-18T05:32:23.515Z,11.25
2024-04-18T05:33:23.548Z,16.88
2024-04-18T05:34:23.436Z,16.88
2024-04-18T05:35:24.098Z,16.88
2024-04-18T05:36:23.442Z,16.88
2024-04-18T05:37:35.559Z,16.88
2024-04-18T05:41:34.734Z,22.50
2024-04-18T05:42:23.815Z,22.50
2024-04-18T05:43:23.749Z,16.88
2024-04-18T05:44:23.734Z,16.88
2024-04-18T05:45:23.757Z,16.88
2024-04-18T05:46:23.670Z,16.88
2024-04-18T05:47:23.846Z,16.88
2024-04-18T05:48:24.272Z,16.88
2024-04-18T05:51:27.850Z,22.50
2024-04-18T05:52:15.984Z,22.50
2024-04-18T05:53:15.965Z,22.50
2024-04-18T05:54:16.102Z,22.50
2024-04-18T05:55:15.951Z,22.50
2024-04-18T05:56:15.903Z,16.88
2024-04-18T05:57:15.900Z,16.88
2024-04-18T05:58:29.169Z,16.88
2024-04-18T06:02:48.200Z,16.88
2024-04-18T06:03:35.870Z,16.88
2024-04-18T06:06:00.765Z,16.88
2024-04-18T06:06:43.753Z,16.88
2024-04-18T06:07:46.440Z,16.88
2024-04-18T06:08:43.774Z,16.88
2024-04-18T06:09:43.768Z,16.88
2024-04-18T06:10:43.750Z,16.88
2024-04-18T06:11:43.692Z,16.88
2024-04-18T06:12:43.679Z,16.88
2024-04-18T06:13:43.653Z,16.88
2024-04-18T06:14:43.584Z,16.88
2024-04-18T06:15:43.618Z,16.88
2024-04-18T06:16:43.605Z,16.88
2024-04-18T06:17:43.595Z,16.88
2024-04-18T06:18:43.548Z,16.88
2024-04-18T06:19:43.502Z,16.88
2024-04-18T06:20:43.486Z,16.88
2024-04-18T06:21:43.532Z,16.88
2024-04-18T06:22:43.456Z,16.88
2024-04-18T06:23:43.425Z,16.88
2024-04-18T06:24:45.443Z,16.88
2024-04-18T06:25:43.391Z,22.50
2024-04-18T06:26:43.411Z,22.50
2024-04-18T06:27:43.385Z,22.50
2024-04-18T06:28:43.383Z,22.50
2024-04-18T06:29:43.328Z,22.50
2024-04-18T06:32:55.687Z,22.50
2024-04-18T06:33:43.417Z,28.13
2024-04-18T06:34:43.165Z,28.13
2024-04-18T06:35:43.185Z,22.50
2024-04-18T06:36:43.175Z,22.50
2024-04-18T06:37:44.106Z,22.50
2024-04-18T06:38:43.694Z,22.50
2024-04-18T06:43:41.604Z,28.13
2024-04-18T06:46:29.177Z,33.75
2024-04-18T06:54:14.053Z,61.88
2024-04-18T06:55:17.625Z,61.88
2024-04-18T06:57:23.004Z,56.25
2024-04-18T07:02:05.044Z,56.25
2024-04-18T07:02:51.112Z,61.88
2024-04-18T07:04:05.177Z,67.50
2024-04-18T07:06:15.009Z,90.00
2024-04-18T07:07:00.370Z,95.63
2024-04-18T07:09:21.854Z,95.63
2024-04-18T07:10:26.727Z,95.63
2024-04-18T07:12:18.266Z,112.50
2024-04-18T07:13:18.195Z,118.13
2024-04-18T07:15:25.347Z,123.75
2024-04-18T07:16:25.313Z,118.13
2024-04-18T07:17:25.370Z,118.13
2024-04-18T07:18:25.337Z,118.13
2024-04-18T07:19:25.286Z,123.75
2024-04-18T07:20:26.635Z,123.75
2024-04-18T07:21:25.304Z,118.13
2024-04-18T07:24:24.732Z,95.63
2024-04-18T07:25:11.201Z,50.63
2024-04-18T07:26:11.198Z,39.38
2024-04-18T07:27:30.037Z,56.25
2024-04-18T07:29:25.361Z,56.25
2024-04-18T07:30:25.361Z,56.25
2024-04-18T07:31:25.317Z,56.25
2024-04-18T07:32:25.318Z,56.25
2024-04-18T07:33:26.209Z,56.25
2024-04-18T07:34:25.369Z,56.25
2024-04-18T07:35:25.230Z,61.88
2024-04-18T07:36:25.298Z,61.88
2024-04-18T07:37:26.552Z,67.50
2024-04-18T07:38:25.178Z,67.50
2024-04-18T07:39:25.171Z,61.88
2024-04-18T07:40:25.145Z,50.63
2024-04-18T07:41:25.150Z,50.63
2024-04-18T07:42:25.143Z,50.63
2024-04-18T07:43:25.123Z,50.63
2024-04-18T07:44:25.334Z,39.38
2024-04-18T07:45:25.200Z,39.38
2024-04-18T07:46:25.039Z,50.63
2024-04-18T07:47:25.131Z,56.25
2024-04-18T07:48:25.144Z,61.88
2024-04-18T07:49:25.078Z,56.25
2024-04-18T07:50:24.975Z,56.25
2024-04-18T07:51:24.985Z,50.63
2024-04-18T07:52:25.079Z,45.00
2024-04-18T07:53:24.964Z,39.38
2024-04-18T07:54:24.932Z,39.38
2024-04-18T07:55:24.902Z,50.63
2024-04-18T07:56:25.444Z,61.88
2024-04-18T07:57:25.435Z,61.88
2024-04-18T07:58:25.490Z,61.88
2024-04-18T07:59:25.534Z,56.25
2024-04-18T08:00:26.033Z,61.88
2024-04-18T08:01:26.006Z,78.75
2024-04-18T08:02:26.631Z,95.63
2024-04-18T08:03:27.195Z,112.50
2024-04-18T08:04:45.303Z,106.88
2024-04-18T08:05:26.915Z,101.25
2024-04-18T08:06:27.660Z,95.63
2024-04-18T08:07:29.187Z,101.25
2024-04-18T08:08:27.504Z,118.13
2024-04-18T08:09:32.016Z,151.88
2024-04-18T08:10:33.108Z,163.13
2024-04-18T08:11:53.539Z,157.50
2024-04-18T08:12:28.123Z,151.88
2024-04-18T08:13:27.741Z,157.50
2024-04-18T08:14:27.593Z,157.50
2024-04-18T08:16:25.199Z,202.50
2024-04-18T08:17:24.721Z,157.50
2024-04-18T08:18:24.555Z,157.50
2024-04-18T08:19:25.149Z,168.75
2024-04-18T08:20:27.561Z,163.13
2024-04-18T08:21:25.167Z,140.63
2024-04-18T08:22:24.455Z,118.13
2024-04-18T08:23:24.502Z,118.13
2024-04-18T08:24:25.457Z,118.13
2024-04-18T08:25:25.301Z,112.50
2024-04-18T08:26:24.395Z,95.63
2024-04-18T08:27:24.875Z,84.38
2024-04-18T08:28:27.564Z,78.75
2024-04-18T08:29:24.438Z,73.13
2024-04-18T08:30:25.686Z,67.50
2024-04-18T08:31:25.261Z,61.88
2024-04-18T08:32:27.297Z,56.25
2024-04-18T08:33:24.340Z,56.25
2024-04-18T08:34:25.530Z,56.25
2024-04-18T08:35:26.013Z,61.88
2024-04-18T08:36:24.943Z,56.25
2024-04-18T08:37:25.157Z,45.00
2024-04-18T08:40:23.221Z,33.75
2024-04-18T08:41:23.290Z,39.38
2024-04-18T08:43:46.988Z,45.00
2024-04-18T08:44:43.944Z,45.00
2024-04-18T08:45:44.683Z,56.25
2024-04-18T08:46:44.442Z,61.88
2024-04-18T08:47:44.731Z,61.88
2024-04-18T08:48:45.721Z,56.25
2024-04-18T08:49:44.199Z,50.63
2024-04-18T08:50:45.001Z,50.63
2024-04-18T08:51:43.783Z,56.25
2024-04-18T08:52:44.228Z,56.25
2024-04-18T08:53:45.121Z,61.88
2024-04-18T08:54:45.386Z,61.88
2024-04-18T08:55:45.245Z,61.88
2024-04-18T08:56:46.025Z,67.50
2024-04-18T08:57:43.801Z,78.75
2024-04-18T08:58:46.047Z,90.00
2024-04-18T08:59:46.723Z,95.63
2024-04-18T09:00:44.694Z,101.25
2024-04-18T09:01:46.636Z,106.88
2024-04-18T09:02:44.117Z,112.50
2024-04-18T09:03:43.577Z,106.88
2024-04-18T09:04:43.690Z,101.25
2024-04-18T09:05:43.568Z,101.25
2024-04-18T09:06:44.338Z,106.88
2024-04-18T09:07:44.972Z,101.25
2024-04-18T09:08:43.838Z,90.00
2024-04-18T09:09:43.762Z,78.75
2024-04-18T09:10:43.899Z,73.13
2024-04-18T09:11:43.856Z,78.75
2024-04-18T09:12:43.711Z,78.75
2024-04-18T09:13:43.745Z,73.13
2024-04-18T09:14:44.391Z,78.75
2024-04-18T09:15:43.642Z,84.38
2024-04-18T09:16:44.700Z,84.38
2024-04-18T09:17:43.426Z,84.38
2024-04-18T09:18:47.015Z,90.00
2024-04-18T09:19:43.468Z,101.25
2024-04-18T09:20:44.759Z,112.50
2024-04-18T09:21:43.660Z,123.75
2024-04-18T09:22:43.311Z,129.38
2024-04-18T09:23:44.297Z,118.13
2024-04-18T09:24:46.593Z,101.25
2024-04-18T09:25:45.759Z,90.00
2024-04-18T09:26:47.328Z,84.38
2024-04-18T09:27:43.267Z,84.38
2024-04-18T09:28:45.561Z,78.75
2024-04-18T09:29:44.222Z,78.75
2024-04-18T09:31:06.596Z,90.00
2024-04-18T09:31:44.769Z,101.25
2024-04-18T09:32:44.222Z,101.25
2024-04-18T09:33:44.466Z,101.25
2024-04-18T09:34:44.238Z,95.63
2024-04-18T09:35:43.473Z,90.00
2024-04-18T09:36:43.154Z,84.38
2024-04-18T09:37:47.079Z,84.38
2024-04-18T09:38:43.021Z,101.25
2024-04-18T09:39:43.058Z,112.50
2024-04-18T09:40:43.016Z,112.50
2024-04-18T09:41:42.975Z,118.13
2024-04-18T09:42:43.002Z,123.75
2024-04-18T09:43:42.943Z,123.75
2024-04-18T09:44:42.938Z,123.75
2024-04-18T09:45:42.934Z,106.88
2024-04-18T09:46:42.901Z,95.63
2024-04-18T09:47:42.926Z,90.00
2024-04-18T09:48:42.950Z,78.75
2024-04-18T09:49:42.928Z,73.13
2024-04-18T09:50:42.838Z,73.13
2024-04-18T09:51:42.846Z,78.75
2024-04-18T09:52:42.823Z,90.00
2024-04-18T09:53:42.789Z,90.00
2024-04-18T09:54:42.858Z,90.00
2024-04-18T09:55:42.799Z,84.38
2024-04-18T09:56:42.770Z,73.13
2024-04-18T09:57:42.822Z,67.50
2024-04-18T09:58:42.738Z,73.13
2024-04-18T09:59:42.698Z,78.75
2024-04-18T10:00:42.702Z,90.00
2024-04-18T10:01:42.694Z,101.25
2024-04-18T10:02:42.663Z,112.50
2024-04-18T10:03:42.715Z,112.50
2024-04-18T10:04:42.624Z,112.50
2024-04-18T10:05:42.616Z,106.88
2024-04-18T10:06:42.672Z,106.88
2024-04-18T10:07:42.600Z,118.13
2024-04-18T10:08:42.563Z,123.75
2024-04-18T10:09:42.564Z,135.00
2024-04-18T10:10:42.542Z,146.25
2024-04-18T10:11:42.526Z,146.25
2024-04-18T10:12:43.678Z,157.50
2024-04-18T10:13:42.561Z,163.13
2024-04-18T10:14:42.478Z,191.25
2024-04-18T10:15:42.475Z,253.13
2024-04-18T10:16:42.446Z,416.25
2024-04-18T10:17:42.475Z,433.13
2024-04-18T10:18:42.559Z,410.63
2024-04-18T10:19:42.398Z,360.00
2024-04-18T10:20:42.387Z,326.25
2024-04-18T10:22:47.399Z,281.25
2024-04-18T10:23:42.343Z,275.63
2024-04-18T10:24:42.370Z,275.63
2024-04-18T10:25:42.318Z,303.75
2024-04-18T10:26:42.321Z,309.38
2024-04-18T10:27:42.299Z,331.88
2024-04-18T10:28:42.270Z,371.25
2024-04-18T10:29:42.260Z,343.13
2024-04-18T10:30:42.301Z,326.25
2024-04-18T10:31:42.237Z,326.25
2024-04-18T10:32:42.334Z,360.00
2024-04-18T10:33:42.258Z,376.88
2024-04-18T10:34:42.191Z,365.63
2024-04-18T10:35:42.186Z,433.13
2024-04-18T10:36:43.628Z,590.63
2024-04-18T10:37:42.153Z,714.38
2024-04-18T10:38:42.143Z,478.13
2024-04-18T10:39:42.183Z,382.50
2024-04-18T10:40:42.120Z,382.50
2024-04-18T10:41:42.103Z,365.63
2024-04-18T10:42:42.130Z,360.00
2024-04-18T10:43:42.086Z,331.88
2024-04-18T10:44:42.063Z,331.88
2024-04-18T10:45:42.156Z,326.25
2024-04-18T10:46:42.046Z,337.50
2024-04-18T10:47:42.074Z,326.25
2024-04-18T10:48:42.081Z,298.13
2024-04-18T10:49:42.007Z,292.50
2024-04-18T10:50:42.000Z,292.50
2024-04-18T10:51:42.041Z,281.25
2024-04-18T10:52:41.971Z,281.25
2024-04-18T10:53:41.962Z,258.75
2024-04-18T10:54:41.999Z,230.63
2024-04-18T10:55:41.942Z,202.50
2024-04-18T10:56:41.927Z,180.00
2024-04-18T10:57:42.027Z,174.38
2024-04-18T10:58:41.902Z,180.00
2024-04-18T10:59:41.891Z,185.63
2024-04-18T11:00:41.917Z,202.50
2024-04-18T11:01:41.899Z,230.63
2024-04-18T11:02:41.857Z,286.88
2024-04-18T11:03:41.937Z,450.00
2024-04-18T11:04:41.844Z,984.38
2024-04-18T11:05:41.830Z,590.63
2024-04-18T11:06:41.864Z,405.00
2024-04-18T11:07:41.798Z,320.63
2024-04-18T11:08:41.780Z,275.63
2024-04-18T11:09:41.797Z,264.38
2024-04-18T11:10:41.759Z,270.00
2024-04-18T11:11:41.752Z,320.63
2024-04-18T11:12:41.763Z,388.13
2024-04-18T11:13:41.733Z,506.25
2024-04-18T11:14:41.725Z,365.63
2024-04-18T11:15:41.810Z,247.50
2024-04-18T11:16:41.714Z,151.88
2024-04-18T11:17:41.750Z,95.63
2024-04-18T11:18:41.811Z,67.50
2024-04-18T11:19:41.709Z,61.88
2024-04-18T11:20:41.655Z,67.50
2024-04-18T11:21:41.677Z,61.88
2024-04-18T11:22:43.020Z,61.88
2024-04-18T11:23:47.203Z,61.88
2024-04-18T11:24:41.662Z,61.88
2024-04-18T11:25:41.594Z,67.50
2024-04-18T11:26:41.604Z,67.50
2024-04-18T11:27:41.615Z,67.50
2024-04-18T11:28:41.629Z,67.50
2024-04-18T11:29:41.591Z,73.13
2024-04-18T11:30:41.726Z,78.75
2024-04-18T11:31:41.666Z,78.75
2024-04-18T11:32:41.559Z,84.38
2024-04-18T11:33:41.601Z,84.38
2024-04-18T11:34:41.486Z,84.38
2024-04-18T11:35:41.469Z,78.75
2024-04-18T11:36:41.483Z,73.13
2024-04-18T11:37:41.436Z,67.50
2024-04-18T11:38:41.438Z,78.75
2024-04-18T11:39:41.465Z,95.63
2024-04-18T11:40:41.395Z,118.13
2024-04-18T11:41:41.388Z,140.63
2024-04-18T11:42:41.611Z,157.50
2024-04-18T11:43:41.368Z,174.38
2024-04-18T11:44:41.365Z,185.63
2024-04-18T11:45:41.643Z,191.25
2024-04-18T11:46:41.301Z,213.75
2024-04-18T11:47:41.504Z,241.88
2024-04-18T11:48:41.355Z,275.63
2024-04-18T11:49:42.996Z,315.00
2024-04-18T11:50:41.247Z,303.75
2024-04-18T11:51:41.274Z,303.75
2024-04-18T11:52:41.215Z,343.13
2024-04-18T11:53:41.219Z,438.75
2024-04-18T11:54:41.232Z,405.00
2024-04-18T11:55:41.176Z,843.75
2024-04-18T11:56:41.157Z,911.25
2024-04-18T11:57:41.154Z,759.38
2024-04-18T11:58:41.130Z,871.88
2024-04-18T11:59:41.151Z,860.63
2024-04-18T12:00:41.143Z,855.00
2024-04-18T12:01:41.094Z,855.00
2024-04-18T12:02:41.076Z,855.00
2024-04-18T12:03:41.251Z,826.88
2024-04-18T12:04:42.350Z,832.50
2024-04-18T12:05:41.044Z,821.25
2024-04-18T12:06:41.098Z,804.38
2024-04-18T12:07:41.028Z,798.75
2024-04-18T12:08:41.009Z,787.50
2024-04-18T12:09:41.083Z,776.25
2024-04-18T12:10:41.044Z,742.50
2024-04-18T12:11:40.997Z,731.25
2024-04-18T12:12:40.998Z,725.63
2024-04-18T12:13:40.965Z,697.50
2024-04-18T12:14:40.988Z,691.88
2024-04-18T12:15:41.031Z,691.88
2024-04-18T12:16:40.939Z,680.63
2024-04-18T12:17:40.950Z,669.38
2024-04-18T12:18:40.930Z,658.13
2024-04-18T12:19:41.160Z,652.50
2024-04-18T12:20:41.054Z,652.50
2024-04-18T12:21:41.009Z,646.88
2024-04-18T12:22:40.906Z,652.50
2024-04-18T12:23:40.909Z,646.88
2024-04-18T12:24:40.943Z,663.75
2024-04-18T12:25:40.891Z,691.88
2024-04-18T12:26:40.879Z,725.63
2024-04-18T12:27:40.923Z,461.25
2024-04-18T12:28:40.871Z,630.00
2024-04-18T12:29:40.866Z,247.50
2024-04-18T12:30:40.872Z,225.00
2024-04-18T12:31:40.895Z,247.50
2024-04-18T12:32:40.941Z,675.00
2024-04-18T12:33:40.887Z,258.75
2024-04-18T12:34:40.837Z,264.38
2024-04-18T12:35:40.844Z,410.63
2024-04-18T12:36:40.903Z,292.50
2024-04-18T12:37:40.851Z,230.63
2024-04-18T12:38:40.823Z,219.38
2024-04-18T12:39:40.836Z,219.38
2024-04-18T12:40:40.825Z,219.38
2024-04-18T12:41:40.818Z,230.63
2024-04-18T12:42:40.853Z,247.50
2024-04-18T12:43:40.783Z,253.13
2024-04-18T12:44:40.844Z,264.38
2024-04-18T12:45:40.840Z,286.88
2024-04-18T12:46:40.822Z,286.88
2024-04-18T12:47:40.934Z,354.38
2024-04-18T12:48:41.778Z,382.50
2024-04-18T12:49:40.809Z,253.13
2024-04-18T12:50:40.801Z,466.88
2024-04-18T12:51:40.798Z,455.63
2024-04-18T12:52:40.733Z,253.13
2024-04-18T12:53:40.735Z,337.50
2024-04-18T12:54:40.787Z,247.50
2024-04-18T12:55:40.704Z,196.88
2024-04-18T12:56:40.688Z,191.25
2024-04-18T12:57:40.764Z,196.88
2024-04-18T12:58:41.053Z,191.25
2024-04-18T12:59:40.644Z,416.25
2024-04-18T13:00:40.756Z,461.25
2024-04-18T13:01:40.668Z,230.63
2024-04-18T13:02:40.642Z,365.63
2024-04-18T13:03:40.711Z,455.63
2024-04-18T13:04:40.614Z,388.13
2024-04-18T13:05:40.608Z,455.63
2024-04-18T13:06:40.614Z,421.88
2024-04-18T13:07:40.563Z,421.88
2024-04-18T13:08:40.548Z,410.63
2024-04-18T13:09:40.552Z,399.38
2024-04-18T13:10:40.565Z,393.75
2024-04-18T13:11:40.522Z,382.50
2024-04-18T13:12:40.530Z,376.88
2024-04-18T13:13:40.516Z,371.25
2024-04-18T13:14:40.511Z,371.25
2024-04-18T13:15:40.511Z,365.63
2024-04-18T13:16:40.491Z,360.00
2024-04-18T13:17:40.585Z,360.00
2024-04-18T13:18:40.464Z,343.13
2024-04-18T13:19:40.480Z,337.50
2024-04-18T13:20:40.414Z,331.88
2024-04-18T13:21:40.565Z,326.25
2024-04-18T13:22:40.394Z,326.25
2024-04-18T13:23:40.415Z,320.63
2024-04-18T13:24:40.476Z,320.63
2024-04-18T13:25:40.367Z,315.00
2024-04-18T13:26:40.496Z,315.00
2024-04-18T13:27:40.387Z,315.00
2024-04-18T13:28:40.322Z,309.38
2024-04-18T13:29:40.321Z,303.75
2024-04-18T13:30:40.401Z,298.13
2024-04-18T13:31:40.323Z,292.50
2024-04-18T13:32:40.503Z,281.25
2024-04-18T13:33:40.455Z,270.00
2024-04-18T13:34:40.260Z,258.75
2024-04-18T13:35:40.247Z,258.75
2024-04-18T13:36:40.306Z,247.50
2024-04-18T13:37:40.732Z,241.88
2024-04-18T13:38:40.218Z,236.25
2024-04-18T13:39:40.303Z,230.63
2024-04-18T13:40:40.191Z,230.63
2024-04-18T13:41:40.173Z,230.63
2024-04-18T13:42:40.281Z,219.38